Center Ossipee, NH (03814)

8:35 AM EST on December 06, 2016 (GMT -0500)
| | Change Station

Elev -9999 ft 0.00 °N, 0.00 °E | Updated

Clear
Clear
36 °F
Feels Like 31 °F
N
5
Wind Variable Wind from WNW
Gusts mph

Today
High -- | Low -- °F
--% Chance of Precip.
Yesterday
High -- | Low -- °F
Precip. -- in
Pressure 30.14 in
Visibility 10.0 miles
Clouds Overcast 3400 ft
Windchill 31 °F
Dew Point 22 °F
Humidity 56%
Rainfall --
Snow Depth Not available.
7:04 AM 4:07 PM
Waxing Crescent, 41% visible
METAR KLCI 061256Z AUTO VRB03KT 10SM OVC034 M01/M02 A3009 RMK AO2 SLP207 T10061017 FZRANO
Pressure 30.14 in
Visibility 10.0 miles
Clouds Overcast 3400 ft
Windchill 31 °F
Dew Point 22 °F
Humidity 56%
Rainfall --
Snow Depth Not available.
7:04 AM 4:07 PM
Waxing Crescent, 41% visible
METAR KLCI 061256Z AUTO VRB03KT 10SM OVC034 M01/M02 A3009 RMK AO2 SLP207 T10061017 FZRANO

10-Day Weather Forecast

Almanac

Astronomy

Dec. 06, 2016 Rise Set
Actual Time
Civil Twilight
Nautical Twilight
Astronomical Twilight
Moon
Length of Visible Light
Length of Day
Tomorrow will be .
, % of the Moon is Illuminated

Today's Extremes

State Highs State Lows

Community

WunderPhotos

Upload Photos

1,955,945 photos uploaded!

WunderBlog® & News

Nearby

Air Quality

  Air Quality AQ Index Pollutant
Not available.

Snow Depth

Station Depth Elevation

Earthquake Activity

City Distance Mag. Time & Date
Minimum magnitude displayed is 2.5.

Coastal Water Temperatures

Place Temperature

Stations

Nearby Weather Stations

Station Location Temp. Windchill Dew Point Humidity Wind Precip. Elev Updated Type
                   

Watches & Warnings

There are currently no watches in effect.